sensor_id;sensor_type;location;lat;lon;timestamp;temperature;humidity
15638;DHT22;26604;53.596;10.042;2022-08-11T00:01:48;22.80;99.90
15638;DHT22;26604;53.596;10.042;2022-08-11T00:04:17;22.80;99.90
15638;DHT22;26604;53.596;10.042;2022-08-11T00:06:46;22.80;99.90
15638;DHT22;26604;53.596;10.042;2022-08-11T00:09:15;22.80;99.90
15638;DHT22;26604;53.596;10.042;2022-08-11T00:11:46;22.80;99.90
15638;DHT22;26604;53.596;10.042;2022-08-11T00:14:16;22.80;99.90
15638;DHT22;26604;53.596;10.042;2022-08-11T00:16:52;22.80;99.90
15638;DHT22;26604;53.596;10.042;2022-08-11T00:19:21;22.80;99.90
15638;DHT22;26604;53.596;10.042;2022-08-11T00:21:49;22.80;99.90
15638;DHT22;26604;53.596;10.042;2022-08-11T00:24:17;22.80;99.90
15638;DHT22;26604;53.596;10.042;2022-08-11T00:26:47;22.80;99.90
15638;DHT22;26604;53.596;10.042;2022-08-11T00:29:14;22.80;99.90
15638;DHT22;26604;53.596;10.042;2022-08-11T00:31:44;22.80;99.90
15638;DHT22;26604;53.596;10.042;2022-08-11T00:34:17;22.80;99.90
15638;DHT22;26604;53.596;10.042;2022-08-11T00:36:47;22.80;99.90
15638;DHT22;26604;53.596;10.042;2022-08-11T00:39:16;22.80;99.90
15638;DHT22;26604;53.596;10.042;2022-08-11T00:41:54;22.80;99.90
15638;DHT22;26604;53.596;10.042;2022-08-11T00:44:32;22.80;99.90
15638;DHT22;26604;53.596;10.042;2022-08-11T00:47:10;22.80;99.90
15638;DHT22;26604;53.596;10.042;2022-08-11T00:49:51;22.80;99.90
15638;DHT22;26604;53.596;10.042;2022-08-11T00:52:32;22.80;99.90
15638;DHT22;26604;53.596;10.042;2022-08-11T00:55:38;22.80;99.90
15638;DHT22;26604;53.596;10.042;2022-08-11T00:58:44;22.80;99.90
15638;DHT22;26604;53.596;10.042;2022-08-11T01:01:23;22.80;99.90
15638;DHT22;26604;53.596;10.042;2022-08-11T01:04:27;22.80;99.90
15638;DHT22;26604;53.596;10.042;2022-08-11T01:07:31;22.80;99.90
15638;DHT22;26604;53.596;10.042;2022-08-11T01:10:13;22.80;99.90
15638;DHT22;26604;53.596;10.042;2022-08-11T01:12:55;22.80;99.90
15638;DHT22;26604;53.596;10.042;2022-08-11T01:15:55;22.80;99.90
15638;DHT22;26604;53.596;10.042;2022-08-11T01:22:09;22.80;99.90
15638;DHT22;26604;53.596;10.042;2022-08-11T01:37:40;22.80;99.90
15638;DHT22;26604;53.596;10.042;2022-08-11T01:43:41;22.80;99.90
15638;DHT22;26604;53.596;10.042;2022-08-11T01:46:34;22.90;99.90
15638;DHT22;26604;53.596;10.042;2022-08-11T01:49:11;22.90;99.90
15638;DHT22;26604;53.596;10.042;2022-08-11T01:52:00;22.90;99.90
15638;DHT22;26604;53.596;10.042;2022-08-11T01:54:39;22.90;99.90
15638;DHT22;26604;53.596;10.042;2022-08-11T01:57:15;22.90;99.90
15638;DHT22;26604;53.596;10.042;2022-08-11T01:59:48;22.90;99.90
15638;DHT22;26604;53.596;10.042;2022-08-11T02:02:30;22.90;99.90
15638;DHT22;26604;53.596;10.042;2022-08-11T02:05:33;22.90;99.90
15638;DHT22;26604;53.596;10.042;2022-08-11T02:08:09;22.90;99.90
15638;DHT22;26604;53.596;10.042;2022-08-11T02:10:45;23.00;99.90
15638;DHT22;26604;53.596;10.042;2022-08-11T02:13:36;23.00;99.90
15638;DHT22;26604;53.596;10.042;2022-08-11T02:16:16;23.00;99.90
15638;DHT22;26604;53.596;10.042;2022-08-11T02:18:51;22.90;99.90
15638;DHT22;26604;53.596;10.042;2022-08-11T02:21:43;22.90;99.90
15638;DHT22;26604;53.596;10.042;2022-08-11T02:24:34;22.90;99.90
15638;DHT22;26604;53.596;10.042;2022-08-11T02:27:08;22.90;99.90
15638;DHT22;26604;53.596;10.042;2022-08-11T02:29:46;22.90;99.90
15638;DHT22;26604;53.596;10.042;2022-08-11T02:32:26;22.90;99.90
15638;DHT22;26604;53.596;10.042;2022-08-11T02:35:17;22.90;99.90
15638;DHT22;26604;53.596;10.042;2022-08-11T02:37:51;22.90;99.90
15638;DHT22;26604;53.596;10.042;2022-08-11T02:40:32;22.90;99.90
15638;DHT22;26604;53.596;10.042;2022-08-11T02:43:31;22.90;99.90
15638;DHT22;26604;53.596;10.042;2022-08-11T02:46:16;22.90;99.90
15638;DHT22;26604;53.596;10.042;2022-08-11T02:48:53;22.90;99.90
15638;DHT22;26604;53.596;10.042;2022-08-11T02:51:52;22.90;99.90
15638;DHT22;26604;53.596;10.042;2022-08-11T02:54:24;22.90;99.90
15638;DHT22;26604;53.596;10.042;2022-08-11T02:56:57;22.90;99.90
15638;DHT22;26604;53.596;10.042;2022-08-11T02:59:35;22.90;99.90
15638;DHT22;26604;53.596;10.042;2022-08-11T03:02:24;22.90;99.90
15638;DHT22;26604;53.596;10.042;2022-08-11T03:05:02;22.90;99.90
15638;DHT22;26604;53.596;10.042;2022-08-11T03:07:36;22.90;99.90
15638;DHT22;26604;53.596;10.042;2022-08-11T03:10:10;22.90;99.90
15638;DHT22;26604;53.596;10.042;2022-08-11T03:12:46;22.90;99.90
15638;DHT22;26604;53.596;10.042;2022-08-11T03:15:42;22.80;99.90
15638;DHT22;26604;53.596;10.042;2022-08-11T03:18:33;22.90;99.90
15638;DHT22;26604;53.596;10.042;2022-08-11T03:21:08;22.80;99.90
15638;DHT22;26604;53.596;10.042;2022-08-11T03:23:45;22.80;99.90
15638;DHT22;26604;53.596;10.042;2022-08-11T03:26:22;22.80;99.90
15638;DHT22;26604;53.596;10.042;2022-08-11T03:28:55;22.80;99.90
15638;DHT22;26604;53.596;10.042;2022-08-11T03:31:31;22.80;99.90
15638;DHT22;26604;53.596;10.042;2022-08-11T03:34:02;22.80;99.90
15638;DHT22;26604;53.596;10.042;2022-08-11T03:39:37;22.80;99.90
15638;DHT22;26604;53.596;10.042;2022-08-11T03:42:14;22.80;99.90
15638;DHT22;26604;53.596;10.042;2022-08-11T03:44:58;22.80;99.90
15638;DHT22;26604;53.596;10.042;2022-08-11T03:50:41;22.80;99.90
15638;DHT22;26604;53.596;10.042;2022-08-11T03:53:16;22.80;99.90
15638;DHT22;26604;53.596;10.042;2022-08-11T03:59:05;22.80;99.90
15638;DHT22;26604;53.596;10.042;2022-08-11T04:08:27;22.80;99.90
15638;DHT22;26604;53.596;10.042;2022-08-11T04:11:16;22.80;99.90
15638;DHT22;26604;53.596;10.042;2022-08-11T04:14:26;22.80;99.90
15638;DHT22;26604;53.596;10.042;2022-08-11T04:17:47;22.80;99.90
15638;DHT22;26604;53.596;10.042;2022-08-11T04:20:42;22.80;99.90
15638;DHT22;26604;53.596;10.042;2022-08-11T04:23:24;22.80;99.90
15638;DHT22;26604;53.596;10.042;2022-08-11T04:26:16;22.80;99.90
15638;DHT22;26604;53.596;10.042;2022-08-11T04:28:54;22.80;99.90
15638;DHT22;26604;53.596;10.042;2022-08-11T04:31:37;22.80;99.90
15638;DHT22;26604;53.596;10.042;2022-08-11T04:34:31;22.80;99.90
15638;DHT22;26604;53.596;10.042;2022-08-11T04:37:11;22.80;99.90
15638;DHT22;26604;53.596;10.042;2022-08-11T04:46:29;22.80;99.90
15638;DHT22;26604;53.596;10.042;2022-08-11T04:49:24;22.80;99.90
15638;DHT22;26604;53.596;10.042;2022-08-11T04:52:27;22.80;99.90
15638;DHT22;26604;53.596;10.042;2022-08-11T04:55:31;22.80;99.90
15638;DHT22;26604;53.596;10.042;2022-08-11T04:58:23;22.80;99.90
15638;DHT22;26604;53.596;10.042;2022-08-11T05:01:18;22.80;99.90
15638;DHT22;26604;53.596;10.042;2022-08-11T05:04:48;22.80;99.90
15638;DHT22;26604;53.596;10.042;2022-08-11T05:10:51;22.80;99.90
15638;DHT22;26604;53.596;10.042;2022-08-11T05:13:27;22.80;99.90
15638;DHT22;26604;53.596;10.042;2022-08-11T05:16:16;22.80;99.90
15638;DHT22;26604;53.596;10.042;2022-08-11T05:19:02;22.80;99.90
15638;DHT22;26604;53.596;10.042;2022-08-11T05:21:52;22.80;99.90
15638;DHT22;26604;53.596;10.042;2022-08-11T05:24:42;22.80;99.90
15638;DHT22;26604;53.596;10.042;2022-08-11T05:27:32;22.80;99.90
15638;DHT22;26604;53.596;10.042;2022-08-11T05:30:19;22.80;99.90
15638;DHT22;26604;53.596;10.042;2022-08-11T05:33:11;22.80;99.90
15638;DHT22;26604;53.596;10.042;2022-08-11T05:36:04;22.90;99.90
15638;DHT22;26604;53.596;10.042;2022-08-11T05:38:34;22.90;99.90
15638;DHT22;26604;53.596;10.042;2022-08-11T05:41:22;22.90;99.90
15638;DHT22;26604;53.596;10.042;2022-08-11T05:44:09;22.90;99.90
15638;DHT22;26604;53.596;10.042;2022-08-11T05:46:54;22.90;99.90
15638;DHT22;26604;53.596;10.042;2022-08-11T05:49:40;22.90;99.90
15638;DHT22;26604;53.596;10.042;2022-08-11T05:52:26;22.90;99.90
15638;DHT22;26604;53.596;10.042;2022-08-11T05:55:13;22.90;99.90
15638;DHT22;26604;53.596;10.042;2022-08-11T05:58:02;23.00;99.90
15638;DHT22;26604;53.596;10.042;2022-08-11T06:00:29;23.00;99.90
15638;DHT22;26604;53.596;10.042;2022-08-11T06:03:00;23.00;99.90
15638;DHT22;26604;53.596;10.042;2022-08-11T06:05:32;23.10;99.90
15638;DHT22;26604;53.596;10.042;2022-08-11T06:08:00;23.00;99.90
15638;DHT22;26604;53.596;10.042;2022-08-11T06:10:31;23.10;99.90
15638;DHT22;26604;53.596;10.042;2022-08-11T06:12:59;23.00;99.90
15638;DHT22;26604;53.596;10.042;2022-08-11T06:15:27;23.00;99.90
15638;DHT22;26604;53.596;10.042;2022-08-11T06:17:56;23.00;99.90
15638;DHT22;26604;53.596;10.042;2022-08-11T06:20:25;23.00;99.90
15638;DHT22;26604;53.596;10.042;2022-08-11T06:23:00;23.00;99.90
15638;DHT22;26604;53.596;10.042;2022-08-11T06:25:34;23.00;99.90
15638;DHT22;26604;53.596;10.042;2022-08-11T06:28:04;23.00;99.90
15638;DHT22;26604;53.596;10.042;2022-08-11T06:30:33;23.00;99.90
15638;DHT22;26604;53.596;10.042;2022-08-11T06:33:07;23.00;99.90
15638;DHT22;26604;53.596;10.042;2022-08-11T06:35:44;23.00;99.90
15638;DHT22;26604;53.596;10.042;2022-08-11T06:38:16;23.00;99.90
15638;DHT22;26604;53.596;10.042;2022-08-11T06:40:53;23.00;99.90
15638;DHT22;26604;53.596;10.042;2022-08-11T06:43:46;23.00;99.90
15638;DHT22;26604;53.596;10.042;2022-08-11T06:46:17;23.00;99.90
15638;DHT22;26604;53.596;10.042;2022-08-11T06:48:49;23.00;99.90
15638;DHT22;26604;53.596;10.042;2022-08-11T06:51:16;23.00;99.90
15638;DHT22;26604;53.596;10.042;2022-08-11T06:53:44;23.00;99.90
15638;DHT22;26604;53.596;10.042;2022-08-11T06:56:14;23.00;99.90
15638;DHT22;26604;53.596;10.042;2022-08-11T06:59:00;23.10;99.90
15638;DHT22;26604;53.596;10.042;2022-08-11T07:02:04;23.10;1.00
15638;DHT22;26604;53.596;10.042;2022-08-11T07:04:40;23.20;1.00
15638;DHT22;26604;53.596;10.042;2022-08-11T07:10:52;23.30;1.00
15638;DHT22;26604;53.596;10.042;2022-08-11T07:13:43;23.30;1.00
15638;DHT22;26604;53.596;10.042;2022-08-11T07:16:30;23.30;1.00
15638;DHT22;26604;53.596;10.042;2022-08-11T07:19:02;23.20;1.00
15638;DHT22;26604;53.596;10.042;2022-08-11T07:21:48;23.20;1.00
15638;DHT22;26604;53.596;10.042;2022-08-11T07:24:37;23.20;1.00
15638;DHT22;26604;53.596;10.042;2022-08-11T07:27:25;23.20;1.00
15638;DHT22;26604;53.596;10.042;2022-08-11T07:30:27;23.20;1.00
15638;DHT22;26604;53.596;10.042;2022-08-11T07:32:57;23.20;1.00
15638;DHT22;26604;53.596;10.042;2022-08-11T07:35:31;23.30;1.00
15638;DHT22;26604;53.596;10.042;2022-08-11T07:38:01;23.30;1.00
15638;DHT22;26604;53.596;10.042;2022-08-11T07:40:29;23.30;1.00
15638;DHT22;26604;53.596;10.042;2022-08-11T07:42:58;23.30;1.00
15638;DHT22;26604;53.596;10.042;2022-08-11T07:45:27;23.30;1.00
15638;DHT22;26604;53.596;10.042;2022-08-11T07:48:12;23.30;1.00
15638;DHT22;26604;53.596;10.042;2022-08-11T07:50:58;23.30;1.00
15638;DHT22;26604;53.596;10.042;2022-08-11T07:53:42;23.30;1.00
15638;DHT22;26604;53.596;10.042;2022-08-11T07:56:10;23.30;1.00
15638;DHT22;26604;53.596;10.042;2022-08-11T07:58:39;23.20;1.00
15638;DHT22;26604;53.596;10.042;2022-08-11T08:01:25;23.20;1.00
15638;DHT22;26604;53.596;10.042;2022-08-11T08:04:13;23.20;1.00
15638;DHT22;26604;53.596;10.042;2022-08-11T08:07:00;23.20;1.00
15638;DHT22;26604;53.596;10.042;2022-08-11T08:09:47;23.30;1.00
15638;DHT22;26604;53.596;10.042;2022-08-11T08:12:33;23.30;99.90
15638;DHT22;26604;53.596;10.042;2022-08-11T08:15:19;23.20;99.90
15638;DHT22;26604;53.596;10.042;2022-08-11T08:18:06;23.20;99.90
15638;DHT22;26604;53.596;10.042;2022-08-11T08:20:38;23.20;99.90
15638;DHT22;26604;53.596;10.042;2022-08-11T08:23:06;23.30;99.90
15638;DHT22;26604;53.596;10.042;2022-08-11T08:25:35;23.30;99.90
15638;DHT22;26604;53.596;10.042;2022-08-11T08:28:06;23.30;99.90
15638;DHT22;26604;53.596;10.042;2022-08-11T08:30:35;23.30;99.90
15638;DHT22;26604;53.596;10.042;2022-08-11T08:33:19;23.30;99.90
15638;DHT22;26604;53.596;10.042;2022-08-11T08:35:48;23.30;99.90
15638;DHT22;26604;53.596;10.042;2022-08-11T08:38:16;23.30;99.90
15638;DHT22;26604;53.596;10.042;2022-08-11T08:40:45;23.30;99.90
15638;DHT22;26604;53.596;10.042;2022-08-11T08:43:15;23.30;99.90
15638;DHT22;26604;53.596;10.042;2022-08-11T08:45:43;23.30;99.90
15638;DHT22;26604;53.596;10.042;2022-08-11T08:48:12;23.30;99.90
15638;DHT22;26604;53.596;10.042;2022-08-11T08:50:46;23.30;99.90
15638;DHT22;26604;53.596;10.042;2022-08-11T08:53:35;23.30;99.90
15638;DHT22;26604;53.596;10.042;2022-08-11T08:56:06;23.30;99.90
15638;DHT22;26604;53.596;10.042;2022-08-11T08:58:36;23.30;99.90
15638;DHT22;26604;53.596;10.042;2022-08-11T09:01:04;23.30;99.90
15638;DHT22;26604;53.596;10.042;2022-08-11T09:03:35;23.30;99.90
15638;DHT22;26604;53.596;10.042;2022-08-11T09:06:04;23.30;99.90
15638;DHT22;26604;53.596;10.042;2022-08-11T09:08:32;23.30;99.90
15638;DHT22;26604;53.596;10.042;2022-08-11T09:11:01;23.30;99.90
15638;DHT22;26604;53.596;10.042;2022-08-11T09:13:46;23.30;1.00
15638;DHT22;26604;53.596;10.042;2022-08-11T09:16:13;23.30;1.00
15638;DHT22;26604;53.596;10.042;2022-08-11T09:18:41;23.30;1.00
15638;DHT22;26604;53.596;10.042;2022-08-11T09:21:12;23.40;1.00
15638;DHT22;26604;53.596;10.042;2022-08-11T09:23:40;23.40;1.00
15638;DHT22;26604;53.596;10.042;2022-08-11T09:26:26;23.40;1.00
15638;DHT22;26604;53.596;10.042;2022-08-11T09:29:26;23.40;1.00
15638;DHT22;26604;53.596;10.042;2022-08-11T09:31:53;23.40;1.00
15638;DHT22;26604;53.596;10.042;2022-08-11T09:34:21;23.40;1.00
15638;DHT22;26604;53.596;10.042;2022-08-11T09:36:50;23.40;1.00
15638;DHT22;26604;53.596;10.042;2022-08-11T09:39:36;23.40;1.00
15638;DHT22;26604;53.596;10.042;2022-08-11T09:42:30;23.40;1.00
15638;DHT22;26604;53.596;10.042;2022-08-11T09:45:11;23.40;1.00
15638;DHT22;26604;53.596;10.042;2022-08-11T09:47:39;23.50;1.00
15638;DHT22;26604;53.596;10.042;2022-08-11T09:50:08;23.50;1.00
15638;DHT22;26604;53.596;10.042;2022-08-11T09:52:39;23.50;1.00
15638;DHT22;26604;53.596;10.042;2022-08-11T09:55:07;23.50;1.00
15638;DHT22;26604;53.596;10.042;2022-08-11T09:57:38;23.50;1.00
15638;DHT22;26604;53.596;10.042;2022-08-11T10:00:27;23.50;1.00
15638;DHT22;26604;53.596;10.042;2022-08-11T10:02:55;23.50;1.00
15638;DHT22;26604;53.596;10.042;2022-08-11T10:05:23;23.50;1.00
15638;DHT22;26604;53.596;10.042;2022-08-11T10:08:11;23.40;1.00
15638;DHT22;26604;53.596;10.042;2022-08-11T10:10:39;23.50;1.00
15638;DHT22;26604;53.596;10.042;2022-08-11T10:13:10;23.50;1.00
15638;DHT22;26604;53.596;10.042;2022-08-11T10:15:41;23.40;1.00
15638;DHT22;26604;53.596;10.042;2022-08-11T10:18:12;23.50;1.00
15638;DHT22;26604;53.596;10.042;2022-08-11T10:20:59;23.50;1.00
15638;DHT22;26604;53.596;10.042;2022-08-11T10:23:31;23.50;1.00
15638;DHT22;26604;53.596;10.042;2022-08-11T10:26:17;23.50;1.00
15638;DHT22;26604;53.596;10.042;2022-08-11T10:29:02;23.50;1.00
15638;DHT22;26604;53.596;10.042;2022-08-11T10:31:51;23.50;1.00
15638;DHT22;26604;53.596;10.042;2022-08-11T10:34:33;23.50;1.00
15638;DHT22;26604;53.596;10.042;2022-08-11T10:37:01;23.50;1.00
15638;DHT22;26604;53.596;10.042;2022-08-11T10:39:30;23.50;1.00
15638;DHT22;26604;53.596;10.042;2022-08-11T10:41:57;23.50;1.00
15638;DHT22;26604;53.596;10.042;2022-08-11T10:44:44;23.50;99.90
15638;DHT22;26604;53.596;10.042;2022-08-11T10:47:13;23.50;99.90
15638;DHT22;26604;53.596;10.042;2022-08-11T10:49:58;23.50;99.90
15638;DHT22;26604;53.596;10.042;2022-08-11T10:52:44;23.40;99.90
15638;DHT22;26604;53.596;10.042;2022-08-11T10:55:31;23.50;99.90
15638;DHT22;26604;53.596;10.042;2022-08-11T10:58:17;23.50;99.90
15638;DHT22;26604;53.596;10.042;2022-08-11T11:01:02;23.50;99.90
15638;DHT22;26604;53.596;10.042;2022-08-11T11:03:30;23.40;99.90
15638;DHT22;26604;53.596;10.042;2022-08-11T11:06:05;23.50;99.90
15638;DHT22;26604;53.596;10.042;2022-08-11T11:08:37;23.50;99.90
15638;DHT22;26604;53.596;10.042;2022-08-11T11:11:23;23.50;99.90
15638;DHT22;26604;53.596;10.042;2022-08-11T11:14:15;23.50;99.90
15638;DHT22;26604;53.596;10.042;2022-08-11T11:17:02;23.60;1.00
15638;DHT22;26604;53.596;10.042;2022-08-11T11:19:52;23.60;1.00
15638;DHT22;26604;53.596;10.042;2022-08-11T11:22:20;23.60;1.00
15638;DHT22;26604;53.596;10.042;2022-08-11T11:25:18;23.60;99.90
15638;DHT22;26604;53.596;10.042;2022-08-11T11:30:45;23.60;99.90
15638;DHT22;26604;53.596;10.042;2022-08-11T11:33:19;23.60;99.90
15638;DHT22;26604;53.596;10.042;2022-08-11T11:36:00;23.60;99.90
15638;DHT22;26604;53.596;10.042;2022-08-11T11:38:30;23.60;99.90
15638;DHT22;26604;53.596;10.042;2022-08-11T11:40:58;23.60;1.00
15638;DHT22;26604;53.596;10.042;2022-08-11T11:43:44;23.60;1.00
15638;DHT22;26604;53.596;10.042;2022-08-11T11:46:11;23.60;1.00
15638;DHT22;26604;53.596;10.042;2022-08-11T11:48:39;23.60;1.00
15638;DHT22;26604;53.596;10.042;2022-08-11T11:51:08;23.60;1.00
15638;DHT22;26604;53.596;10.042;2022-08-11T11:53:39;23.60;1.00
15638;DHT22;26604;53.596;10.042;2022-08-11T11:56:08;23.60;1.00
15638;DHT22;26604;53.596;10.042;2022-08-11T11:58:37;23.60;1.00
15638;DHT22;26604;53.596;10.042;2022-08-11T12:01:23;23.60;1.00
15638;DHT22;26604;53.596;10.042;2022-08-11T12:03:53;23.60;1.00
15638;DHT22;26604;53.596;10.042;2022-08-11T12:06:22;23.60;1.00
15638;DHT22;26604;53.596;10.042;2022-08-11T12:08:52;23.60;1.00
15638;DHT22;26604;53.596;10.042;2022-08-11T12:11:23;23.60;1.00
15638;DHT22;26604;53.596;10.042;2022-08-11T12:14:08;23.60;1.00
15638;DHT22;26604;53.596;10.042;2022-08-11T12:16:39;23.60;1.00
15638;DHT22;26604;53.596;10.042;2022-08-11T12:19:08;23.60;1.00
15638;DHT22;26604;53.596;10.042;2022-08-11T12:21:37;23.60;1.00
15638;DHT22;26604;53.596;10.042;2022-08-11T12:24:24;23.60;1.00
15638;DHT22;26604;53.596;10.042;2022-08-11T12:27:08;23.60;1.00
15638;DHT22;26604;53.596;10.042;2022-08-11T12:29:50;23.60;1.00
15638;DHT22;26604;53.596;10.042;2022-08-11T12:32:19;23.60;1.00
15638;DHT22;26604;53.596;10.042;2022-08-11T12:34:46;23.60;1.00
15638;DHT22;26604;53.596;10.042;2022-08-11T12:37:17;23.70;1.00
15638;DHT22;26604;53.596;10.042;2022-08-11T12:39:50;23.70;1.00
15638;DHT22;26604;53.596;10.042;2022-08-11T12:42:36;23.70;1.00
15638;DHT22;26604;53.596;10.042;2022-08-11T12:45:25;23.70;1.00
15638;DHT22;26604;53.596;10.042;2022-08-11T12:48:01;23.70;1.00
15638;DHT22;26604;53.596;10.042;2022-08-11T12:50:54;23.70;1.00
15638;DHT22;26604;53.596;10.042;2022-08-11T12:53:45;23.70;1.00
15638;DHT22;26604;53.596;10.042;2022-08-11T12:56:18;23.70;1.00
15638;DHT22;26604;53.596;10.042;2022-08-11T12:59:04;23.70;1.00
15638;DHT22;26604;53.596;10.042;2022-08-11T13:01:49;23.70;1.00
15638;DHT22;26604;53.596;10.042;2022-08-11T13:04:35;23.70;1.00
15638;DHT22;26604;53.596;10.042;2022-08-11T13:07:24;23.70;1.00
15638;DHT22;26604;53.596;10.042;2022-08-11T13:09:52;23.70;1.00
15638;DHT22;26604;53.596;10.042;2022-08-11T13:12:21;23.70;1.00
15638;DHT22;26604;53.596;10.042;2022-08-11T13:15:09;23.70;1.00
15638;DHT22;26604;53.596;10.042;2022-08-11T13:17:38;23.70;1.00
15638;DHT22;26604;53.596;10.042;2022-08-11T13:20:09;23.70;1.00
15638;DHT22;26604;53.596;10.042;2022-08-11T13:22:38;23.70;1.00
15638;DHT22;26604;53.596;10.042;2022-08-11T13:25:06;23.70;1.00
15638;DHT22;26604;53.596;10.042;2022-08-11T13:27:34;23.70;1.00
15638;DHT22;26604;53.596;10.042;2022-08-11T13:30:02;23.70;1.00
15638;DHT22;26604;53.596;10.042;2022-08-11T13:32:47;23.70;1.00
15638;DHT22;26604;53.596;10.042;2022-08-11T13:35:16;23.70;1.00
15638;DHT22;26604;53.596;10.042;2022-08-11T13:37:44;23.70;1.00
15638;DHT22;26604;53.596;10.042;2022-08-11T13:40:13;23.70;1.00
15638;DHT22;26604;53.596;10.042;2022-08-11T13:42:43;23.70;1.00
15638;DHT22;26604;53.596;10.042;2022-08-11T13:45:10;23.70;1.00
15638;DHT22;26604;53.596;10.042;2022-08-11T13:47:38;23.70;1.00
15638;DHT22;26604;53.596;10.042;2022-08-11T13:50:07;23.70;1.00
15638;DHT22;26604;53.596;10.042;2022-08-11T13:52:36;23.70;1.00
15638;DHT22;26604;53.596;10.042;2022-08-11T13:55:07;23.70;1.00
15638;DHT22;26604;53.596;10.042;2022-08-11T13:57:35;23.70;1.00
15638;DHT22;26604;53.596;10.042;2022-08-11T14:00:05;23.80;1.00
15638;DHT22;26604;53.596;10.042;2022-08-11T14:02:37;23.70;1.00
15638;DHT22;26604;53.596;10.042;2022-08-11T14:05:09;23.70;1.00
15638;DHT22;26604;53.596;10.042;2022-08-11T14:07:42;23.70;1.00
15638;DHT22;26604;53.596;10.042;2022-08-11T14:10:11;23.70;1.00
15638;DHT22;26604;53.596;10.042;2022-08-11T14:12:40;23.70;1.00
15638;DHT22;26604;53.596;10.042;2022-08-11T14:15:30;23.70;1.00
15638;DHT22;26604;53.596;10.042;2022-08-11T14:18:02;23.70;1.00
15638;DHT22;26604;53.596;10.042;2022-08-11T14:20:32;23.70;1.00
15638;DHT22;26604;53.596;10.042;2022-08-11T14:23:15;23.70;1.00
15638;DHT22;26604;53.596;10.042;2022-08-11T14:25:42;23.70;1.00
15638;DHT22;26604;53.596;10.042;2022-08-11T14:28:23;23.70;1.00
15638;DHT22;26604;53.596;10.042;2022-08-11T14:30:51;23.70;1.00
15638;DHT22;26604;53.596;10.042;2022-08-11T14:33:21;23.70;1.00
15638;DHT22;26604;53.596;10.042;2022-08-11T14:35:48;23.70;1.00
15638;DHT22;26604;53.596;10.042;2022-08-11T14:38:17;23.70;1.00
15638;DHT22;26604;53.596;10.042;2022-08-11T14:40:46;23.80;1.00
15638;DHT22;26604;53.596;10.042;2022-08-11T14:43:31;23.80;1.00
15638;DHT22;26604;53.596;10.042;2022-08-11T14:46:16;23.70;1.00
15638;DHT22;26604;53.596;10.042;2022-08-11T14:49:00;23.80;1.00
15638;DHT22;26604;53.596;10.042;2022-08-11T14:51:27;23.80;1.00
15638;DHT22;26604;53.596;10.042;2022-08-11T14:53:56;23.80;1.00
15638;DHT22;26604;53.596;10.042;2022-08-11T14:56:45;23.80;1.00
15638;DHT22;26604;53.596;10.042;2022-08-11T14:59:12;23.80;1.00
15638;DHT22;26604;53.596;10.042;2022-08-11T15:01:39;23.80;1.00
15638;DHT22;26604;53.596;10.042;2022-08-11T15:04:24;23.80;1.00
15638;DHT22;26604;53.596;10.042;2022-08-11T15:06:52;23.80;1.00
15638;DHT22;26604;53.596;10.042;2022-08-11T15:09:20;23.80;1.00
15638;DHT22;26604;53.596;10.042;2022-08-11T15:11:47;23.80;1.00
15638;DHT22;26604;53.596;10.042;2022-08-11T15:14:31;23.80;1.00
15638;DHT22;26604;53.596;10.042;2022-08-11T15:17:28;23.80;1.00
15638;DHT22;26604;53.596;10.042;2022-08-11T15:19:59;23.90;1.00
15638;DHT22;26604;53.596;10.042;2022-08-11T15:22:45;23.90;1.00
15638;DHT22;26604;53.596;10.042;2022-08-11T15:25:34;23.90;1.00
15638;DHT22;26604;53.596;10.042;2022-08-11T15:28:03;23.90;1.00
15638;DHT22;26604;53.596;10.042;2022-08-11T15:30:53;23.80;1.00
15638;DHT22;26604;53.596;10.042;2022-08-11T15:33:39;23.90;1.00
15638;DHT22;26604;53.596;10.042;2022-08-11T15:36:24;23.80;1.00
15638;DHT22;26604;53.596;10.042;2022-08-11T15:39:15;23.80;1.00
15638;DHT22;26604;53.596;10.042;2022-08-11T15:41:47;23.80;1.00
15638;DHT22;26604;53.596;10.042;2022-08-11T15:44:36;23.80;1.00
15638;DHT22;26604;53.596;10.042;2022-08-11T15:47:26;23.80;1.00
15638;DHT22;26604;53.596;10.042;2022-08-11T15:49:57;23.80;1.00
15638;DHT22;26604;53.596;10.042;2022-08-11T15:52:30;23.80;1.00
15638;DHT22;26604;53.596;10.042;2022-08-11T15:54:59;23.80;1.00
15638;DHT22;26604;53.596;10.042;2022-08-11T15:57:29;23.80;1.00
15638;DHT22;26604;53.596;10.042;2022-08-11T16:00:14;23.80;1.00
15638;DHT22;26604;53.596;10.042;2022-08-11T16:03:02;23.80;1.00
15638;DHT22;26604;53.596;10.042;2022-08-11T16:05:47;23.80;1.00
15638;DHT22;26604;53.596;10.042;2022-08-11T16:08:18;23.80;1.00
15638;DHT22;26604;53.596;10.042;2022-08-11T16:10:47;23.80;1.00
15638;DHT22;26604;53.596;10.042;2022-08-11T16:13:16;23.80;1.00
15638;DHT22;26604;53.596;10.042;2022-08-11T16:16:02;23.80;1.00
15638;DHT22;26604;53.596;10.042;2022-08-11T16:18:45;23.80;1.00
15638;DHT22;26604;53.596;10.042;2022-08-11T16:21:17;23.80;1.00
15638;DHT22;26604;53.596;10.042;2022-08-11T16:23:46;23.80;1.00
15638;DHT22;26604;53.596;10.042;2022-08-11T16:26:18;23.80;1.00
15638;DHT22;26604;53.596;10.042;2022-08-11T16:28:49;23.80;1.00
15638;DHT22;26604;53.596;10.042;2022-08-11T16:31:18;23.80;1.00
15638;DHT22;26604;53.596;10.042;2022-08-11T16:33:47;23.80;1.00
15638;DHT22;26604;53.596;10.042;2022-08-11T16:36:15;23.80;1.00
15638;DHT22;26604;53.596;10.042;2022-08-11T16:39:01;23.80;1.00
15638;DHT22;26604;53.596;10.042;2022-08-11T16:41:30;23.80;1.00
15638;DHT22;26604;53.596;10.042;2022-08-11T16:44:18;23.80;1.00
15638;DHT22;26604;53.596;10.042;2022-08-11T16:47:03;23.80;1.00
15638;DHT22;26604;53.596;10.042;2022-08-11T16:49:33;23.80;1.00
15638;DHT22;26604;53.596;10.042;2022-08-11T16:52:02;23.80;1.00
15638;DHT22;26604;53.596;10.042;2022-08-11T16:54:30;23.80;1.00
15638;DHT22;26604;53.596;10.042;2022-08-11T16:56:59;23.80;1.00
15638;DHT22;26604;53.596;10.042;2022-08-11T16:59:50;23.80;1.00
15638;DHT22;26604;53.596;10.042;2022-08-11T17:02:22;23.90;1.00
15638;DHT22;26604;53.596;10.042;2022-08-11T17:05:08;23.90;1.00
15638;DHT22;26604;53.596;10.042;2022-08-11T17:07:54;23.90;1.00
15638;DHT22;26604;53.596;10.042;2022-08-11T17:10:43;24.00;1.00
15638;DHT22;26604;53.596;10.042;2022-08-11T17:13:35;24.00;1.00
15638;DHT22;26604;53.596;10.042;2022-08-11T17:16:08;24.00;1.00
15638;DHT22;26604;53.596;10.042;2022-08-11T17:18:41;24.00;1.00
15638;DHT22;26604;53.596;10.042;2022-08-11T17:21:15;24.00;1.00
15638;DHT22;26604;53.596;10.042;2022-08-11T17:23:47;24.00;1.00